Time;durP1;ratioP1;P1;durP2;ratioP2;P2;SDS_P1;SDS_P2;PMS_P1;PMS_P2;Temp;Humidity;BMP_temperature;BMP_pressure;BME280_temperature;BME280_humidity;BME280_pressure;Samples;Min_cycle;Max_cycle;Signal;HPM_P1;HPM_P2
2022/05/18 00:01:08;;;;;;;4.33;1.50;;;16.40;99.90;;;;;;6144651;23;20183;-92
2022/05/18 00:03:44;;;;;;;3.50;1.10;;;16.20;99.90;;;;;;6146686;23;20230;-92
2022/05/18 00:06:16;;;;;;;2.97;1.10;;;16.70;99.90;;;;;;6146404;23;20180;-92
2022/05/18 00:08:56;;;;;;;2.27;1.00;;;17.10;99.90;;;;;;6124636;23;20190;-92
2022/05/18 00:11:27;;;;;;;2.57;1.10;;;17.30;99.90;;;;;;6151513;23;20186;-92
2022/05/18 00:19:18;;;;;;;1.60;1.10;;;17.20;99.90;;;;;;6142538;23;20248;-92
2022/05/18 00:21:52;;;;;;;4.33;1.40;;;17.10;99.90;;;;;;6122404;23;20178;-92
2022/05/18 00:24:32;;;;;;;2.43;1.20;;;17.30;99.90;;;;;;6136402;23;20628;-93
2022/05/18 00:27:08;;;;;;;3.67;1.50;;;17.40;99.90;;;;;;6147755;23;20547;-93
2022/05/18 00:29:47;;;;;;;2.00;1.10;;;17.50;99.90;;;;;;6145881;23;20253;-93
2022/05/18 00:32:19;;;;;;;2.73;1.20;;;17.50;99.90;;;;;;6147573;23;20151;-93
2022/05/18 00:34:54;;;;;;;2.33;1.20;;;17.50;99.90;;;;;;6122343;23;20225;-93
2022/05/18 00:37:25;;;;;;;2.03;0.97;;;17.60;99.90;;;;;;6148318;23;20174;-93
2022/05/18 00:40:01;;;;;;;1.80;0.93;;;17.40;99.90;;;;;;6150679;23;20166;-91
2022/05/18 00:42:44;;;;;;;2.50;1.00;;;17.50;99.90;;;;;;6150265;23;20178;-92
2022/05/18 00:45:17;;;;;;;2.50;0.90;;;17.60;99.90;;;;;;6150292;23;20170;-92
2022/05/18 00:47:51;;;;;;;2.30;0.90;;;17.50;99.90;;;;;;6149801;23;20165;-92
2022/05/18 00:50:30;;;;;;;3.73;1.40;;;17.20;99.90;;;;;;6150157;23;20208;-90
2022/05/18 00:53:09;;;;;;;2.67;1.10;;;17.00;99.90;;;;;;6150884;23;20190;-92
2022/05/18 00:55:47;;;;;;;3.57;1.50;;;17.00;99.90;;;;;;6153656;23;20206;-91
2022/05/18 00:58:23;;;;;;;1.83;1.00;;;16.90;99.90;;;;;;6128280;23;20213;-92
2022/05/18 01:00:54;;;;;;;2.80;1.30;;;17.00;99.90;;;;;;6128222;23;20209;-92
2022/05/18 01:03:28;;;;;;;3.27;1.20;;;17.30;99.90;;;;;;6146123;23;20238;-92
2022/05/18 01:06:04;;;;;;;2.83;1.07;;;17.20;99.90;;;;;;6148789;23;20230;-92
2022/05/18 01:08:44;;;;;;;2.77;1.30;;;17.10;99.90;;;;;;6124452;23;20174;-92
2022/05/18 01:11:21;;;;;;;2.30;1.20;;;17.30;99.90;;;;;;6101534;23;20171;-91
2022/05/18 01:13:53;;;;;;;3.80;1.30;;;17.30;99.90;;;;;;6124634;23;20170;-94
2022/05/18 01:16:28;;;;;;;1.70;1.00;;;17.50;99.90;;;;;;6125614;23;20170;-93
2022/05/18 01:19:01;;;;;;;3.97;1.37;;;17.80;99.90;;;;;;6151982;23;20178;-93
2022/05/18 01:24:23;;;;;;;3.70;1.13;;;17.60;99.90;;;;;;6152913;23;20210;-93
2022/05/18 01:29:46;;;;;;;4.73;1.30;;;18.30;99.90;;;;;;6149452;23;20286;-91
2022/05/18 01:32:21;;;;;;;4.80;1.23;;;18.10;99.90;;;;;;6147558;23;20179;-90
2022/05/18 01:34:58;;;;;;;4.07;1.67;;;18.30;99.90;;;;;;6151542;23;20178;-92
2022/05/18 01:37:33;;;;;;;3.53;1.40;;;18.60;99.90;;;;;;6141298;23;20225;-91
2022/05/18 01:40:09;;;;;;;2.87;1.23;;;18.50;99.90;;;;;;6132872;23;20179;-90
2022/05/18 01:42:47;;;;;;;2.80;1.20;;;18.50;99.90;;;;;;6140261;23;20358;-91
2022/05/18 01:45:21;;;;;;;2.30;1.63;;;18.40;99.90;;;;;;6147240;23;20174;-91
2022/05/18 01:47:55;;;;;;;3.13;1.10;;;18.30;99.90;;;;;;6125178;23;20150;-91
2022/05/18 01:50:31;;;;;;;2.87;1.10;;;18.30;99.90;;;;;;6142136;23;20267;-91
2022/05/18 01:53:02;;;;;;;5.43;1.50;;;18.20;99.90;;;;;;6142077;23;20269;-91
2022/05/18 01:55:36;;;;;;;2.70;1.40;;;18.10;99.90;;;;;;6114160;23;20233;-91
2022/05/18 01:58:13;;;;;;;3.00;1.70;;;17.60;99.90;;;;;;6136132;23;20549;-91
2022/05/18 02:00:58;;;;;;;2.70;1.20;;;17.30;99.90;;;;;;6140610;23;20173;-92
2022/05/18 02:03:36;;;;;;;3.03;1.40;;;17.40;99.90;;;;;;6123841;23;20174;-92
2022/05/18 02:06:09;;;;;;;2.77;1.13;;;17.30;99.90;;;;;;6145323;23;20206;-92
2022/05/18 02:08:43;;;;;;;3.20;1.30;;;16.80;99.90;;;;;;6120601;23;21842;-92
2022/05/18 02:11:18;;;;;;;3.00;1.47;;;16.10;99.90;;;;;;6088762;23;20274;-92
2022/05/18 02:13:57;;;;;;;3.67;1.50;;;16.00;99.90;;;;;;6119436;23;20170;-91
2022/05/18 02:19:22;;;;;;;2.27;1.30;;;15.90;99.90;;;;;;6115642;23;20179;-93
2022/05/18 02:21:55;;;;;;;2.20;1.03;;;15.90;99.90;;;;;;6091813;23;20277;-93
2022/05/18 02:27:39;;;;;;;1.80;1.27;;;15.60;99.90;;;;;;6118271;23;20185;-92
2022/05/18 02:30:30;;;;;;;3.67;1.60;;;15.40;99.90;;;;;;6119151;23;20202;-91
2022/05/18 02:33:05;;;;;;;1.77;1.00;;;15.20;99.90;;;;;;6116745;23;20167;-92
2022/05/18 02:35:40;;;;;;;4.10;1.10;;;15.20;99.90;;;;;;6120011;23;20166;-91
2022/05/18 02:38:14;;;;;;;5.40;1.43;;;15.20;99.90;;;;;;6117799;23;20179;-92
2022/05/18 02:40:46;;;;;;;3.33;1.33;;;15.20;99.90;;;;;;6116941;23;20184;-90
2022/05/18 02:43:17;;;;;;;2.37;1.50;;;15.20;99.90;;;;;;6117335;23;20178;-92
2022/05/18 02:46:01;;;;;;;2.57;1.30;;;15.10;99.90;;;;;;6110835;23;20167;-93
2022/05/18 02:48:33;;;;;;;4.73;1.20;;;15.10;99.90;;;;;;6105121;23;20207;-92
2022/05/18 02:51:09;;;;;;;3.27;1.20;;;15.10;99.90;;;;;;6114907;23;20199;-93
2022/05/18 02:53:41;;;;;;;2.20;1.13;;;15.00;99.90;;;;;;6112761;23;20176;-92
2022/05/18 02:56:16;;;;;;;3.63;1.40;;;14.90;99.90;;;;;;6114275;23;20171;-93
2022/05/18 02:58:52;;;;;;;3.87;1.30;;;14.70;99.90;;;;;;6103944;23;20215;-93
2022/05/18 03:01:26;;;;;;;3.70;1.43;;;14.50;99.90;;;;;;6104202;23;20179;-93
2022/05/18 03:03:58;;;;;;;2.13;1.20;;;14.20;99.90;;;;;;6103177;23;20179;-93
2022/05/18 03:06:30;;;;;;;3.97;1.80;;;14.10;99.90;;;;;;6084482;23;20179;-93
2022/05/18 03:09:01;;;;;;;3.33;1.43;;;14.00;99.90;;;;;;6108402;23;20201;-93
2022/05/18 03:11:34;;;;;;;1.83;1.00;;;13.90;99.90;;;;;;6103793;23;20239;-93
2022/05/18 03:14:06;;;;;;;2.73;1.40;;;13.80;99.90;;;;;;6109108;23;20227;-92
2022/05/18 03:16:43;;;;;;;3.97;1.60;;;13.80;99.90;;;;;;6110962;23;20183;-92
2022/05/18 03:19:15;;;;;;;3.63;1.60;;;13.70;99.90;;;;;;6109349;23;20232;-92
2022/05/18 03:24:36;;;;;;;2.87;1.30;;;13.60;99.90;;;;;;6114348;23;20167;-92
2022/05/18 03:27:09;;;;;;;2.67;1.33;;;13.50;99.90;;;;;;6090984;23;20261;-93
2022/05/18 03:29:40;;;;;;;3.87;1.77;;;13.30;99.90;;;;;;6122922;23;20183;-92
2022/05/18 03:32:22;;;;;;;3.17;1.47;;;13.30;99.90;;;;;;6122253;23;20673;-92
2022/05/18 03:34:53;;;;;;;2.53;1.10;;;13.20;99.90;;;;;;6091370;23;20179;-93
2022/05/18 03:37:25;;;;;;;3.20;1.43;;;13.10;99.90;;;;;;6090547;23;20179;-94
2022/05/18 03:39:57;;;;;;;3.70;1.37;;;12.90;99.90;;;;;;6115102;23;20195;-92
2022/05/18 03:42:30;;;;;;;3.80;1.47;;;12.80;99.90;;;;;;6108225;23;20179;-93
2022/05/18 03:45:03;;;;;;;3.47;1.30;;;12.70;99.90;;;;;;6083629;23;20231;-93
2022/05/18 03:47:37;;;;;;;4.23;1.60;;;12.60;99.90;;;;;;6103050;23;20641;-93
2022/05/18 03:50:10;;;;;;;7.10;1.70;;;12.60;99.90;;;;;;6110935;23;20183;-93
2022/05/18 03:52:42;;;;;;;3.37;2.03;;;12.50;99.90;;;;;;6093722;23;20202;-92
2022/05/18 03:55:15;;;;;;;3.93;1.60;;;12.40;99.90;;;;;;6119862;23;20185;-93
2022/05/18 03:57:49;;;;;;;3.20;1.60;;;12.30;99.90;;;;;;6119412;23;20175;-92
2022/05/18 04:00:23;;;;;;;2.87;1.53;;;12.20;99.90;;;;;;6119657;23;20190;-93
2022/05/18 04:03:01;;;;;;;4.47;1.40;;;12.10;99.90;;;;;;6118143;23;20207;-92
2022/05/18 04:05:37;;;;;;;2.47;1.80;;;12.00;99.90;;;;;;6119575;23;20175;-92
2022/05/18 04:08:10;;;;;;;3.93;1.63;;;11.90;99.90;;;;;;6116218;23;20183;-90
2022/05/18 04:10:42;;;;;;;2.77;1.50;;;11.80;99.90;;;;;;6114269;23;20199;-93
2022/05/18 04:13:19;;;;;;;2.17;1.40;;;11.80;99.90;;;;;;6091921;23;20179;-93
2022/05/18 04:15:51;;;;;;;3.17;1.70;;;11.80;99.90;;;;;;6106602;23;20254;-93
2022/05/18 04:18:25;;;;;;;4.37;1.60;;;11.70;99.90;;;;;;6079956;23;20181;-92
2022/05/18 04:20:58;;;;;;;2.57;1.87;;;11.60;99.90;;;;;;6103131;23;20170;-92
2022/05/18 04:23:30;;;;;;;3.13;1.57;;;11.60;99.90;;;;;;6103426;23;20183;-92
2022/05/18 04:26:02;;;;;;;1.97;1.57;;;11.50;99.90;;;;;;6082573;23;20171;-93
2022/05/18 04:28:34;;;;;;;2.87;1.60;;;11.50;99.90;;;;;;6079932;23;20179;-92
2022/05/18 04:31:06;;;;;;;5.97;1.60;;;11.50;99.90;;;;;;6105005;23;20198;-92
2022/05/18 04:33:40;;;;;;;3.27;1.40;;;11.60;99.90;;;;;;6106377;23;20190;-92
2022/05/18 04:36:12;;;;;;;3.17;1.40;;;11.60;99.90;;;;;;6111536;23;20178;-92
2022/05/18 04:38:45;;;;;;;3.47;1.80;;;11.70;99.90;;;;;;6085069;23;20174;-92
2022/05/18 04:41:17;;;;;;;1.97;1.67;;;11.70;99.90;;;;;;6123693;23;20190;-92
2022/05/18 04:43:50;;;;;;;3.37;1.60;;;11.50;99.90;;;;;;6123248;23;20174;-92
2022/05/18 04:46:21;;;;;;;5.20;1.70;;;11.50;99.90;;;;;;6109545;23;20171;-92
2022/05/18 04:48:55;;;;;;;4.03;1.60;;;11.40;99.90;;;;;;6104659;23;20179;-92
2022/05/18 04:51:26;;;;;;;2.17;1.80;;;11.50;99.90;;;;;;6118354;23;20227;-90
2022/05/18 04:53:58;;;;;;;5.20;1.70;;;11.50;99.90;;;;;;6122246;23;20204;-92
2022/05/18 04:56:29;;;;;;;3.80;1.57;;;11.50;99.90;;;;;;6121715;23;20159;-93
2022/05/18 04:59:01;;;;;;;4.07;1.60;;;11.50;99.90;;;;;;6120032;23;20168;-92
2022/05/18 05:01:34;;;;;;;4.90;2.10;;;11.50;99.90;;;;;;6119657;23;20179;-92
2022/05/18 05:04:09;;;;;;;7.43;2.33;;;11.60;99.90;;;;;;6108541;23;20261;-91
2022/05/18 05:06:41;;;;;;;5.87;2.77;;;11.50;99.90;;;;;;6109066;23;20573;-91
2022/05/18 05:09:12;;;;;;;3.53;2.43;;;11.50;99.90;;;;;;6104274;23;20198;-91
2022/05/18 05:11:46;;;;;;;4.13;2.47;;;11.50;99.90;;;;;;6105855;23;20259;-92
2022/05/18 05:14:19;;;;;;;5.37;2.33;;;11.40;99.90;;;;;;6114668;23;20216;-92
2022/05/18 05:16:51;;;;;;;3.80;2.03;;;11.30;99.90;;;;;;6103497;23;20497;-92
2022/05/18 05:19:24;;;;;;;3.47;2.20;;;11.30;99.90;;;;;;6103729;23;20179;-92
2022/05/18 05:21:57;;;;;;;5.37;2.67;;;11.30;99.90;;;;;;6120424;23;20221;-92
2022/05/18 05:24:29;;;;;;;3.60;2.37;;;11.30;99.90;;;;;;6109782;23;20572;-92
2022/05/18 05:27:00;;;;;;;4.97;3.00;;;11.30;99.90;;;;;;6133089;23;20253;-92
2022/05/18 05:29:33;;;;;;;12.90;5.90;;;11.30;99.90;;;;;;6109485;23;20182;-92
2022/05/18 05:32:08;;;;;;;15.47;8.63;;;11.30;99.90;;;;;;6136195;23;20217;-92
2022/05/18 05:34:42;;;;;;;22.77;11.40;;;11.20;99.90;;;;;;6138155;23;20178;-92
2022/05/18 05:37:13;;;;;;;26.90;15.20;;;11.20;99.90;;;;;;6134928;23;20680;-92
2022/05/18 05:39:46;;;;;;;22.67;11.87;;;11.30;99.90;;;;;;6136686;23;20222;-93
2022/05/18 05:42:19;;;;;;;43.87;23.63;;;11.30;99.90;;;;;;6151034;23;20173;-92
2022/05/18 05:44:50;;;;;;;27.67;15.93;;;11.30;99.90;;;;;;6149989;23;20177;-92
2022/05/18 05:47:21;;;;;;;22.17;13.03;;;11.30;99.90;;;;;;6141743;23;20189;-92
2022/05/18 05:49:55;;;;;;;12.30;7.03;;;11.30;99.90;;;;;;6132916;23;20181;-91
2022/05/18 05:52:27;;;;;;;8.97;5.53;;;11.40;99.90;;;;;;6132952;23;20682;-92
2022/05/18 05:54:59;;;;;;;7.57;4.33;;;11.40;99.90;;;;;;6132115;23;20622;-92
2022/05/18 05:57:30;;;;;;;9.23;4.97;;;11.40;99.90;;;;;;6132262;23;20179;-93
2022/05/18 06:00:02;;;;;;;6.83;3.70;;;11.40;99.90;;;;;;6133290;23;20537;-93
2022/05/18 06:02:33;;;;;;;20.47;6.20;;;11.40;99.90;;;;;;6132979;23;20185;-92
2022/05/18 06:05:08;;;;;;;17.20;6.33;;;11.40;99.90;;;;;;6133400;23;20206;-92
2022/05/18 06:07:39;;;;;;;25.43;8.10;;;11.40;99.90;;;;;;6140583;23;20166;-91
2022/05/18 06:10:11;;;;;;;22.03;6.53;;;11.50;99.90;;;;;;6150762;23;20209;-91
2022/05/18 06:12:42;;;;;;;23.13;7.70;;;11.60;99.90;;;;;;6150955;23;20198;-92
2022/05/18 06:15:14;;;;;;;13.07;4.33;;;11.60;99.90;;;;;;6149838;23;20198;-92
2022/05/18 06:17:47;;;;;;;12.67;4.03;;;11.60;99.90;;;;;;6140464;23;20237;-91
2022/05/18 06:20:21;;;;;;;8.17;3.17;;;11.60;99.90;;;;;;6113671;23;20227;-91
2022/05/18 06:22:53;;;;;;;5.40;2.50;;;11.70;99.90;;;;;;6107850;23;20241;-91
2022/05/18 06:25:24;;;;;;;5.60;2.50;;;11.80;99.90;;;;;;6109272;23;20583;-92
2022/05/18 06:27:56;;;;;;;6.30;2.23;;;11.70;99.90;;;;;;6114108;23;20183;-90
2022/05/18 06:30:27;;;;;;;4.63;1.50;;;11.80;99.90;;;;;;6113842;23;20238;-92
2022/05/18 06:32:58;;;;;;;4.63;2.20;;;11.70;99.90;;;;;;6104504;23;20206;-92
2022/05/18 06:35:32;;;;;;;5.73;2.63;;;11.70;99.90;;;;;;6105133;23;20202;-92
2022/05/18 06:38:12;;;;;;;8.17;3.57;;;11.70;99.90;;;;;;6104873;23;20202;-91
2022/05/18 06:43:31;;;;;;;10.37;3.90;;;11.60;99.90;;;;;;6106088;23;20183;-92
2022/05/18 06:46:04;;;;;;;7.80;2.90;;;11.60;99.90;;;;;;6102944;23;20550;-92
2022/05/18 06:48:39;;;;;;;4.80;2.43;;;11.60;99.90;;;;;;6104930;23;20185;-91
2022/05/18 06:51:23;;;;;;;7.13;3.07;;;11.50;99.90;;;;;;6121311;23;20199;-92
2022/05/18 06:53:56;;;;;;;7.47;3.43;;;11.50;99.90;;;;;;6121738;23;20279;-91
2022/05/18 06:56:30;;;;;;;4.63;2.70;;;11.40;99.90;;;;;;6123789;23;20179;-90
2022/05/18 06:59:01;;;;;;;9.77;4.00;;;11.50;99.90;;;;;;6124499;23;20186;-91
2022/05/18 07:01:34;;;;;;;8.87;5.03;;;11.40;99.90;;;;;;6124673;23;20171;-90
2022/05/18 07:04:06;;;;;;;13.97;9.77;;;11.40;99.90;;;;;;6124545;23;20230;-92
2022/05/18 07:06:42;;;;;;;9.70;7.37;;;11.30;99.90;;;;;;6124301;23;20226;-91
2022/05/18 07:09:16;;;;;;;7.57;4.80;;;11.30;99.90;;;;;;6122848;23;20182;-91
2022/05/18 07:11:49;;;;;;;4.30;2.50;;;11.20;99.90;;;;;;6120426;23;20194;-91
2022/05/18 07:14:21;;;;;;;4.77;2.20;;;11.10;99.90;;;;;;6119320;23;20179;-92
2022/05/18 07:16:54;;;;;;;5.60;2.03;;;11.10;99.90;;;;;;6121638;23;20170;-91
2022/05/18 07:19:30;;;;;;;2.93;1.80;;;11.10;99.90;;;;;;6122151;23;20167;-92
2022/05/18 07:22:06;;;;;;;2.00;1.80;;;11.00;99.90;;;;;;6137066;23;20245;-91
2022/05/18 07:24:40;;;;;;;3.40;1.70;;;11.00;99.90;;;;;;6127829;23;20171;-92
2022/05/18 07:27:11;;;;;;;4.13;1.90;;;11.00;99.90;;;;;;6123993;23;20170;-93
2022/05/18 07:29:42;;;;;;;2.90;1.63;;;10.90;99.90;;;;;;6147882;23;20186;-92
2022/05/18 07:32:16;;;;;;;5.27;2.13;;;10.90;99.90;;;;;;6151351;23;20166;-92
2022/05/18 07:34:47;;;;;;;3.07;1.70;;;10.90;99.90;;;;;;6148943;23;20189;-92
2022/05/18 07:37:22;;;;;;;4.60;1.70;;;10.90;99.90;;;;;;6149994;23;20189;-92
2022/05/18 07:39:53;;;;;;;5.13;1.87;;;10.80;99.90;;;;;;6119444;23;20178;-90
2022/05/18 07:42:25;;;;;;;3.57;1.73;;;10.80;99.90;;;;;;6139210;23;20189;-91
2022/05/18 07:44:58;;;;;;;5.93;2.10;;;10.80;99.90;;;;;;6138982;23;20189;-89
2022/05/18 07:47:34;;;;;;;6.97;2.43;;;10.80;99.90;;;;;;6137239;23;20182;-94
2022/05/18 07:50:06;;;;;;;6.53;1.87;;;10.80;99.90;;;;;;6135566;23;20182;-91
2022/05/18 07:52:40;;;;;;;4.17;2.00;;;10.80;99.90;;;;;;6140183;23;20202;-91
2022/05/18 07:55:14;;;;;;;5.03;1.77;;;10.70;99.90;;;;;;6112964;23;20178;-90
2022/05/18 07:57:46;;;;;;;4.97;2.07;;;10.70;99.90;;;;;;6134154;23;20178;-91
2022/05/18 08:00:19;;;;;;;5.50;1.93;;;10.70;99.90;;;;;;6108265;23;20613;-91
2022/05/18 08:02:50;;;;;;;5.13;2.00;;;10.70;99.90;;;;;;6134439;23;20189;-91
2022/05/18 08:05:21;;;;;;;4.50;1.83;;;10.70;99.90;;;;;;6133642;23;20179;-91
2022/05/18 08:07:55;;;;;;;4.13;1.80;;;10.70;99.90;;;;;;6132801;23;20171;-90
2022/05/18 08:16:03;;;;;;;2.80;1.80;;;10.70;99.90;;;;;;6134318;23;20182;-91
2022/05/18 08:18:34;;;;;;;3.10;2.20;;;10.70;99.90;;;;;;6132103;23;20183;-91
2022/05/18 08:21:07;;;;;;;5.50;1.90;;;10.70;99.90;;;;;;6134766;23;20178;-91
2022/05/18 08:23:42;;;;;;;3.53;2.03;;;10.70;99.90;;;;;;6139490;23;20221;-90
2022/05/18 08:26:13;;;;;;;4.23;2.00;;;10.70;99.90;;;;;;6133728;23;20229;-91
2022/05/18 08:28:44;;;;;;;7.00;2.20;;;10.70;99.90;;;;;;6131777;23;20179;-91
2022/05/18 08:31:17;;;;;;;7.53;2.23;;;10.60;99.90;;;;;;6134369;23;20179;-91
2022/05/18 08:33:49;;;;;;;7.07;2.80;;;10.70;99.90;;;;;;6134970;23;20246;-91
2022/05/18 08:36:20;;;;;;;4.50;2.20;;;10.60;99.90;;;;;;6109070;23;20626;-91
2022/05/18 08:38:55;;;;;;;2.40;1.77;;;10.60;99.90;;;;;;6134636;23;20246;-91
2022/05/18 08:41:29;;;;;;;6.20;2.17;;;10.60;99.90;;;;;;6140858;23;20605;-91
2022/05/18 08:44:03;;;;;;;7.20;2.50;;;10.50;99.90;;;;;;6137419;23;20212;-91
2022/05/18 08:46:44;;;;;;;5.07;2.13;;;10.50;99.90;;;;;;6134670;23;20186;-91
2022/05/18 08:49:22;;;;;;;5.47;2.23;;;10.50;99.90;;;;;;6131240;23;20577;-91
2022/05/18 08:52:02;;;;;;;5.43;2.30;;;10.50;99.90;;;;;;6133057;23;20257;-91
2022/05/18 08:54:45;;;;;;;6.03;1.80;;;10.40;99.90;;;;;;6132246;23;20212;-91
2022/05/18 08:57:21;;;;;;;4.13;2.00;;;10.40;99.90;;;;;;6132451;23;20174;-91
2022/05/18 08:59:57;;;;;;;6.07;2.27;;;10.40;99.90;;;;;;6131957;23;20178;-91
2022/05/18 09:02:35;;;;;;;3.17;1.93;;;10.40;99.90;;;;;;6131970;23;20179;-91
2022/05/18 09:05:10;;;;;;;4.10;2.23;;;10.40;99.90;;;;;;6131854;23;20261;-91
2022/05/18 09:08:03;;;;;;;5.47;2.10;;;10.40;99.90;;;;;;6132044;23;20518;-91
2022/05/18 09:10:43;;;;;;;4.13;2.00;;;10.40;99.90;;;;;;6132112;23;20167;-89
2022/05/18 09:13:15;;;;;;;5.13;2.30;;;10.40;99.90;;;;;;6106231;23;20198;-90
2022/05/18 09:16:03;;;;;;;4.70;2.43;;;10.40;99.90;;;;;;6133502;23;20178;-92
2022/05/18 09:18:45;;;;;;;4.63;2.20;;;10.40;99.90;;;;;;6130730;23;20174;-92
2022/05/18 09:21:31;;;;;;;8.30;1.90;;;10.40;99.90;;;;;;6132737;23;20592;-92
2022/05/18 09:24:15;;;;;;;3.13;2.20;;;10.40;99.90;;;;;;6108311;23;20189;-91
2022/05/18 09:27:12;;;;;;;3.20;1.97;;;10.40;99.90;;;;;;6135038;23;20233;-91
2022/05/18 09:29:49;;;;;;;3.60;2.13;;;10.30;99.90;;;;;;6133681;23;20261;-91
2022/05/18 09:32:58;;;;;;;8.03;2.17;;;10.30;99.90;;;;;;6133879;23;20971;-90
2022/05/18 09:35:53;;;;;;;5.57;2.43;;;10.20;99.90;;;;;;6133576;23;20189;-91
2022/05/18 09:38:38;;;;;;;7.17;1.90;;;10.20;99.90;;;;;;6133679;23;20529;-91
2022/05/18 09:41:15;;;;;;;5.97;2.50;;;10.10;99.90;;;;;;6134150;23;20178;-91
2022/05/18 09:43:54;;;;;;;5.47;2.27;;;10.00;99.90;;;;;;6133835;23;20533;-92
2022/05/18 09:46:29;;;;;;;5.03;2.30;;;9.90;99.90;;;;;;6133929;23;20166;-92
2022/05/18 09:49:04;;;;;;;6.03;2.53;;;9.90;99.90;;;;;;6133086;23;20185;-92
2022/05/18 09:51:35;;;;;;;7.90;2.97;;;9.90;99.90;;;;;;6135694;23;20181;-91
2022/05/18 09:54:09;;;;;;;4.97;2.90;;;9.80;99.90;;;;;;6133647;23;20236;-91
2022/05/18 09:56:47;;;;;;;5.07;2.77;;;9.70;99.90;;;;;;6135085;23;20226;-90
2022/05/18 09:59:25;;;;;;;5.80;2.80;;;9.60;99.90;;;;;;6134503;23;20178;-90
2022/05/18 10:07:52;;;;;;;7.63;3.57;;;9.30;99.90;;;;;;6111838;23;20178;-90
2022/05/18 10:10:28;;;;;;;7.23;3.17;;;9.10;99.90;;;;;;6138576;23;20177;-90
2022/05/18 10:13:08;;;;;;;8.63;3.00;;;8.90;99.90;;;;;;6132906;23;20260;-90
2022/05/18 10:16:07;;;;;;;7.53;3.50;;;8.90;99.90;;;;;;6132462;23;20178;-90
2022/05/18 10:18:44;;;;;;;8.23;3.13;;;8.80;99.90;;;;;;6133648;23;20256;-90
2022/05/18 10:21:21;;;;;;;9.93;3.10;;;8.80;99.90;;;;;;6130738;23;20182;-90
2022/05/18 10:24:03;;;;;;;11.63;3.90;;;8.80;99.90;;;;;;6130890;23;20193;-90
2022/05/18 10:26:38;;;;;;;12.93;3.73;;;8.70;99.90;;;;;;6131316;23;20182;-90
2022/05/18 10:29:23;;;;;;;9.87;3.50;;;8.70;99.90;;;;;;6130260;23;20513;-90
2022/05/18 10:32:08;;;;;;;10.77;4.90;;;8.70;99.90;;;;;;6107644;23;20185;-90
2022/05/18 10:34:45;;;;;;;7.57;4.10;;;8.60;99.90;;;;;;6133246;23;20198;-90
2022/05/18 10:37:26;;;;;;;7.83;3.77;;;8.50;99.90;;;;;;6135120;23;20182;-90
2022/05/18 10:40:06;;;;;;;10.47;3.67;;;8.50;99.90;;;;;;6135718;23;20190;-90
2022/05/18 10:42:47;;;;;;;8.17;4.00;;;8.50;99.90;;;;;;6134120;23;20178;-89
2022/05/18 10:45:35;;;;;;;6.10;3.77;;;8.50;99.90;;;;;;6135990;23;20569;-90
2022/05/18 10:48:17;;;;;;;12.67;4.17;;;8.50;99.90;;;;;;6136057;23;20178;-90
2022/05/18 10:50:49;;;;;;;7.97;3.60;;;8.60;99.90;;;;;;6137203;23;20193;-91
2022/05/18 10:53:32;;;;;;;10.57;3.97;;;8.60;99.90;;;;;;6134591;23;20700;-90
2022/05/18 10:56:08;;;;;;;8.80;3.83;;;8.60;99.90;;;;;;6134437;23;20185;-90
2022/05/18 10:58:44;;;;;;;9.97;3.90;;;8.60;99.90;;;;;;6137207;23;20214;-90
2022/05/18 11:01:23;;;;;;;7.07;3.80;;;8.60;99.90;;;;;;6134343;23;20648;-90
2022/05/18 11:04:04;;;;;;;11.20;4.63;;;8.60;99.90;;;;;;6139407;23;20241;-91
2022/05/18 11:06:37;;;;;;;12.93;4.33;;;8.60;99.90;;;;;;6136249;23;20182;-90
2022/05/18 11:09:13;;;;;;;13.83;4.60;;;8.60;99.90;;;;;;6133724;23;20491;-91
2022/05/18 11:11:52;;;;;;;11.47;4.23;;;8.70;99.90;;;;;;6133385;23;20182;-90
2022/05/18 11:14:31;;;;;;;6.60;3.60;;;8.60;99.90;;;;;;6135291;23;20205;-90
2022/05/18 11:17:06;;;;;;;5.47;3.23;;;8.70;99.90;;;;;;6134750;23;20178;-90
2022/05/18 11:19:46;;;;;;;9.23;4.10;;;8.60;99.90;;;;;;6109565;23;20320;-89
2022/05/18 11:22:31;;;;;;;10.47;4.20;;;8.70;99.90;;;;;;6109273;23;20178;-91
2022/05/18 11:25:22;;;;;;;12.47;4.30;;;8.60;99.90;;;;;;6116925;23;20170;-91
2022/05/18 11:28:22;;;;;;;9.50;4.57;;;8.60;99.90;;;;;;6152207;23;20189;-90
2022/05/18 11:30:59;;;;;;;8.83;4.40;;;8.50;99.90;;;;;;6152942;23;20182;-91
2022/05/18 11:33:40;;;;;;;9.53;4.30;;;8.70;99.90;;;;;;6147503;23;20598;-89
2022/05/18 11:36:27;;;;;;;9.60;4.13;;;8.70;99.90;;;;;;6135445;23;20200;-89
2022/05/18 11:39:10;;;;;;;10.33;4.60;;;8.70;99.90;;;;;;6109265;23;20510;-89
2022/05/18 11:41:55;;;;;;;9.33;4.50;;;8.60;99.90;;;;;;6133301;23;20234;-90
2022/05/18 11:44:36;;;;;;;8.47;4.30;;;8.50;99.90;;;;;;6101801;23;20186;-89
2022/05/18 11:47:20;;;;;;;9.73;4.30;;;8.50;99.90;;;;;;6104256;23;20174;-89
2022/05/18 11:50:03;;;;;;;10.67;4.60;;;8.40;99.90;;;;;;6112912;23;20634;-90
2022/05/18 11:53:02;;;;;;;11.23;4.47;;;8.50;99.90;;;;;;6119758;23;20197;-90
2022/05/18 11:55:44;;;;;;;10.77;5.13;;;8.50;99.90;;;;;;6106848;23;20210;-90
2022/05/18 11:58:26;;;;;;;7.23;5.17;;;8.40;99.90;;;;;;6102620;23;20182;-90
2022/05/18 12:01:02;;;;;;;14.30;4.60;;;8.50;99.90;;;;;;6103631;23;20182;-90
2022/05/18 12:04:09;;;;;;;11.67;5.90;;;8.50;99.90;;;;;;6103167;23;20281;-90
2022/05/18 12:07:01;;;;;;;11.40;4.40;;;8.40;99.90;;;;;;6103504;23;20226;-90
2022/05/18 12:10:13;;;;;;;7.83;5.33;;;8.30;99.90;;;;;;6102819;23;20179;-89
2022/05/18 12:12:55;;;;;;;9.60;4.70;;;8.30;99.90;;;;;;6115362;23;20186;-90
2022/05/18 12:15:37;;;;;;;8.57;4.47;;;8.40;99.90;;;;;;6119091;23;20230;-90
2022/05/18 12:18:14;;;;;;;9.77;5.00;;;8.30;99.90;;;;;;6111538;23;20183;-90
2022/05/18 12:20:53;;;;;;;11.87;5.30;;;8.20;99.90;;;;;;6104359;23;20177;-90
2022/05/18 12:23:29;;;;;;;8.17;4.77;;;8.30;99.90;;;;;;6103512;23;20198;-90
2022/05/18 12:26:01;;;;;;;11.90;5.37;;;8.20;99.90;;;;;;6102775;23;20203;-90
2022/05/18 12:28:35;;;;;;;11.17;5.60;;;8.20;99.90;;;;;;6101284;23;20621;-90
2022/05/18 12:31:08;;;;;;;12.73;5.90;;;8.20;99.90;;;;;;6102896;23;20174;-90
2022/05/18 12:33:46;;;;;;;10.40;5.30;;;8.20;99.90;;;;;;6078164;23;20174;-90
2022/05/18 12:36:24;;;;;;;9.47;5.07;;;8.20;99.90;;;;;;6102363;23;20203;-90
2022/05/18 12:38:58;;;;;;;8.10;5.50;;;8.20;99.90;;;;;;6100365;23;20175;-90
2022/05/18 12:41:33;;;;;;;9.03;5.37;;;8.20;99.90;;;;;;6100493;23;20543;-90
2022/05/18 12:44:11;;;;;;;12.30;5.37;;;8.20;99.90;;;;;;6125177;23;20208;-90
2022/05/18 12:46:47;;;;;;;12.07;4.43;;;8.20;99.90;;;;;;6131528;23;20173;-89
2022/05/18 12:49:30;;;;;;;8.53;5.17;;;8.20;99.90;;;;;;6130937;23;20185;-90
2022/05/18 12:52:05;;;;;;;8.77;4.80;;;8.10;99.90;;;;;;6131943;23;20165;-90
2022/05/18 12:54:44;;;;;;;10.83;5.60;;;8.10;99.90;;;;;;6134857;23;20623;-90
2022/05/18 12:57:29;;;;;;;9.97;5.30;;;8.20;99.90;;;;;;6134055;23;20182;-90
2022/05/18 13:00:38;;;;;;;10.83;5.30;;;8.30;99.90;;;;;;6132031;23;20633;-90
2022/05/18 13:03:28;;;;;;;12.23;5.87;;;8.40;99.90;;;;;;6109675;23;20193;-89
2022/05/18 13:06:01;;;;;;;8.93;4.97;;;8.40;99.90;;;;;;6131697;23;20170;-90
2022/05/18 13:09:04;;;;;;;12.33;5.77;;;8.50;99.90;;;;;;6130493;23;20212;-90
2022/05/18 13:11:47;;;;;;;7.70;5.17;;;8.50;99.90;;;;;;6084704;23;20194;-90
2022/05/18 13:14:46;;;;;;;8.77;5.17;;;8.60;99.90;;;;;;6131626;23;20222;-90
2022/05/18 13:17:23;;;;;;;7.23;4.70;;;8.60;99.90;;;;;;6133376;23;20170;-89
2022/05/18 13:20:02;;;;;;;8.43;5.30;;;8.60;99.90;;;;;;6131180;23;20205;-90
2022/05/18 13:22:50;;;;;;;6.83;4.60;;;8.60;99.90;;;;;;6131146;23;20178;-90
2022/05/18 13:25:22;;;;;;;8.20;4.23;;;8.80;99.90;;;;;;6130121;23;20201;-90
2022/05/18 13:27:57;;;;;;;6.07;4.37;;;8.70;99.90;;;;;;6129596;23;20192;-90
2022/05/18 13:30:40;;;;;;;6.20;4.07;;;8.80;99.90;;;;;;6130660;23;20166;-90
2022/05/18 13:33:40;;;;;;;6.93;4.20;;;8.80;99.90;;;;;;6129927;23;20182;-90
2022/05/18 13:36:13;;;;;;;6.37;4.20;;;8.80;99.90;;;;;;6130765;23;20210;-89
2022/05/18 13:38:45;;;;;;;8.37;3.60;;;8.80;99.90;;;;;;6136099;23;20186;-89
2022/05/18 13:41:20;;;;;;;6.90;3.70;;;8.60;99.90;;;;;;6130768;23;20185;-90
2022/05/18 13:43:54;;;;;;;6.83;3.80;;;8.60;99.90;;;;;;6100473;23;20197;-90
2022/05/18 13:46:27;;;;;;;5.40;3.63;;;8.60;99.90;;;;;;6100883;23;20179;-90
2022/05/18 13:49:02;;;;;;;6.70;3.70;;;8.60;99.90;;;;;;6101415;23;20207;-89
2022/05/18 13:51:38;;;;;;;3.70;3.33;;;8.70;99.90;;;;;;6101088;23;20166;-90
2022/05/18 13:54:13;;;;;;;10.20;3.80;;;8.70;99.90;;;;;;6100423;23;20178;-90
2022/05/18 13:56:49;;;;;;;5.30;2.97;;;8.70;99.90;;;;;;6100973;23;20475;-89
2022/05/18 13:59:23;;;;;;;7.63;3.30;;;8.80;99.90;;;;;;6099624;23;20170;-90
2022/05/18 14:01:59;;;;;;;5.00;3.50;;;8.60;99.90;;;;;;6100838;23;20246;-90
2022/05/18 14:04:39;;;;;;;6.77;3.40;;;8.60;99.90;;;;;;6101034;23;20178;-90
2022/05/18 14:07:31;;;;;;;7.17;3.67;;;8.60;99.90;;;;;;6100792;23;20690;-90
2022/05/18 14:10:28;;;;;;;4.20;3.03;;;8.50;99.90;;;;;;6100446;23;20217;-89